Time;durP1;ratioP1;P1;durP2;ratioP2;P2;SDS_P1;SDS_P2;PMS_P1;PMS_P2;Temp;Humidity;BMP_temperature;BMP_pressure;BME280_temperature;BME280_humidity;BME280_pressure;Samples;Min_cycle;Max_cycle;Signal;HPM_P1;HPM_P2
2023/10/20 00:01:12;;;;;;;15.45;11.32;;;;;;;13.92;100.00;98478.25;5016667;28;20046;-76
2023/10/20 00:03:39;;;;;;;15.50;11.73;;;;;;;13.91;100.00;98482.69;5020050;28;20041;-77
2023/10/20 00:06:07;;;;;;;16.65;12.07;;;;;;;13.89;100.00;98489.09;5025583;28;20132;-76
2023/10/20 00:08:34;;;;;;;14.98;12.48;;;;;;;13.88;100.00;98498.88;5020124;28;20041;-76
2023/10/20 00:11:04;;;;;;;16.48;12.40;;;;;;;13.87;100.00;98491.88;5009734;28;20049;-76
2023/10/20 00:13:33;;;;;;;20.02;12.95;;;;;;;13.87;100.00;98497.19;5007287;28;20042;-78
2023/10/20 00:16:00;;;;;;;17.17;12.90;;;;;;;13.83;100.00;98493.09;5006206;28;20050;-77
2023/10/20 00:18:27;;;;;;;17.63;12.85;;;;;;;13.82;100.00;98494.03;5010988;28;20120;-78
2023/10/20 00:20:54;;;;;;;17.83;12.70;;;;;;;13.81;100.00;98485.28;5024286;28;20042;-78
2023/10/20 00:23:21;;;;;;;19.50;14.45;;;;;;;13.77;100.00;98473.25;5034695;28;20140;-77
2023/10/20 00:25:48;;;;;;;21.05;15.27;;;;;;;13.76;100.00;98466.25;5019626;28;20049;-77
2023/10/20 00:28:15;;;;;;;20.85;14.82;;;;;;;13.72;100.00;98463.97;5038331;28;20073;-78
2023/10/20 00:30:42;;;;;;;20.08;14.63;;;;;;;13.70;100.00;98471.22;5038373;28;20095;-77
2023/10/20 00:33:09;;;;;;;19.70;15.95;;;;;;;13.66;100.00;98463.53;5013074;28;20050;-77
2023/10/20 00:35:37;;;;;;;22.15;16.17;;;;;;;13.65;100.00;98463.63;5020169;28;20057;-77
2023/10/20 00:38:04;;;;;;;25.27;17.70;;;;;;;13.62;100.00;98455.97;5048890;28;20096;-77
2023/10/20 00:40:31;;;;;;;25.88;17.92;;;;;;;13.62;100.00;98461.25;5006305;28;20384;-77
2023/10/20 00:42:58;;;;;;;22.70;17.48;;;;;;;13.61;100.00;98446.34;5005976;28;20045;-78
2023/10/20 00:45:26;;;;;;;21.83;16.08;;;;;;;13.58;100.00;98439.47;5038414;28;20050;-77
2023/10/20 00:47:53;;;;;;;20.17;16.00;;;;;;;13.58;100.00;98431.53;5004793;28;20148;-78
2023/10/20 00:50:20;;;;;;;22.00;17.08;;;;;;;13.56;100.00;98422.03;5021575;28;20057;-77
2023/10/20 00:52:49;;;;;;;21.80;15.82;;;;;;;13.55;100.00;98417.69;5006604;28;20069;-77
2023/10/20 00:55:20;;;;;;;23.42;17.17;;;;;;;13.51;100.00;98412.69;5005878;28;20506;-76
2023/10/20 00:57:48;;;;;;;21.63;16.88;;;;;;;13.49;100.00;98404.00;5038730;28;20148;-76
2023/10/20 01:00:15;;;;;;;24.05;16.55;;;;;;;13.48;100.00;98399.69;5038323;28;20052;-77
2023/10/20 01:02:43;;;;;;;21.85;16.27;;;;;;;13.48;100.00;98402.31;5008737;28;20664;-77
2023/10/20 01:05:14;;;;;;;24.83;16.80;;;;;;;13.45;100.00;98402.56;5006507;28;20045;-79
2023/10/20 01:07:43;;;;;;;18.17;15.75;;;;;;;13.46;100.00;98408.72;5016713;28;20068;-78
2023/10/20 01:10:10;;;;;;;23.27;15.55;;;;;;;13.47;100.00;98407.75;5026453;28;20045;-77
2023/10/20 01:12:37;;;;;;;22.83;16.70;;;;;;;13.45;100.00;98396.44;5007099;28;20116;-77
2023/10/20 01:15:06;;;;;;;21.67;14.50;;;;;;;13.46;100.00;98384.91;5004420;28;20124;-78
2023/10/20 01:17:33;;;;;;;24.77;15.50;;;;;;;13.46;100.00;98371.66;5019438;28;20051;-78
2023/10/20 01:20:06;;;;;;;17.83;14.32;;;;;;;13.46;100.00;98379.59;5009897;28;20142;-78
2023/10/20 01:22:34;;;;;;;22.20;13.57;;;;;;;13.44;100.00;98366.47;5035687;28;20041;-78
2023/10/20 01:25:01;;;;;;;19.23;13.85;;;;;;;13.45;100.00;98368.16;5013298;28;20139;-78
2023/10/20 01:27:28;;;;;;;21.63;14.43;;;;;;;13.46;100.00;98366.38;5029993;28;20073;-77
2023/10/20 01:29:55;;;;;;;18.55;13.15;;;;;;;13.46;100.00;98347.84;5020025;28;20112;-77
2023/10/20 01:32:22;;;;;;;19.20;12.73;;;;;;;13.48;100.00;98340.63;5011478;28;20065;-76
2023/10/20 01:34:50;;;;;;;18.35;12.70;;;;;;;13.49;100.00;98326.41;5020499;28;20049;-76
2023/10/20 01:37:17;;;;;;;20.73;12.70;;;;;;;13.49;100.00;98311.38;5020475;28;20041;-77
2023/10/20 01:39:45;;;;;;;16.08;12.95;;;;;;;13.47;100.00;98315.13;5022706;28;20137;-79
2023/10/20 01:42:12;;;;;;;16.52;12.20;;;;;;;13.46;100.00;98319.56;5021663;28;20077;-76
2023/10/20 01:44:39;;;;;;;16.45;12.20;;;;;;;13.45;100.00;98312.59;5026075;28;20069;-76
2023/10/20 01:47:06;;;;;;;17.17;12.77;;;;;;;13.44;100.00;98324.13;5018983;28;20049;-78
2023/10/20 01:49:35;;;;;;;18.75;13.07;;;;;;;13.43;100.00;98318.97;5006570;28;20458;-77
2023/10/20 01:52:02;;;;;;;16.05;12.32;;;;;;;13.43;100.00;98327.75;5004753;28;20130;-78
2023/10/20 01:54:29;;;;;;;18.70;13.00;;;;;;;13.43;100.00;98335.69;5005565;28;20092;-75
2023/10/20 01:56:57;;;;;;;17.85;11.82;;;;;;;13.45;100.00;98327.63;5032254;28;20048;-75
2023/10/20 01:59:24;;;;;;;16.42;12.02;;;;;;;13.47;100.00;98315.13;5027310;28;20122;-75
2023/10/20 02:01:51;;;;;;;15.80;12.00;;;;;;;13.47;100.00;98304.53;5041759;28;20037;-75
2023/10/20 02:04:18;;;;;;;18.98;12.75;;;;;;;13.49;100.00;98305.22;5018693;28;20055;-75
2023/10/20 02:06:45;;;;;;;16.45;12.85;;;;;;;13.48;100.00;98290.34;5023585;28;20042;-75
2023/10/20 02:09:12;;;;;;;14.85;11.75;;;;;;;13.51;100.00;98298.00;5015293;28;20405;-75
2023/10/20 02:11:39;;;;;;;14.43;11.85;;;;;;;13.48;100.00;98285.88;5011838;28;20048;-75
2023/10/20 02:14:06;;;;;;;14.65;12.02;;;;;;;13.48;100.00;98282.41;5045637;28;20039;-75
2023/10/20 02:16:36;;;;;;;16.55;11.88;;;;;;;13.51;100.00;98279.47;5020769;28;20048;-74
2023/10/20 02:19:04;;;;;;;15.43;12.18;;;;;;;13.50;100.00;98277.81;5007021;28;20049;-75
2023/10/20 02:21:32;;;;;;;14.98;12.18;;;;;;;13.50;100.00;98275.16;5020042;28;20038;-76
2023/10/20 02:23:59;;;;;;;14.32;12.02;;;;;;;13.49;100.00;98270.81;5019403;28;20042;-78
2023/10/20 02:26:26;;;;;;;16.15;11.60;;;;;;;13.51;100.00;98258.31;5015247;28;20734;-75
2023/10/20 02:28:53;;;;;;;14.18;11.57;;;;;;;13.51;100.00;98240.63;5020008;28;20069;-76
2023/10/20 02:31:20;;;;;;;20.73;12.75;;;;;;;13.51;100.00;98243.28;5002459;28;20117;-76
2023/10/20 02:33:48;;;;;;;16.60;12.15;;;;;;;13.52;100.00;98238.81;5019002;28;20049;-74
2023/10/20 02:36:20;;;;;;;15.68;12.45;;;;;;;13.51;100.00;98240.63;5025625;28;20057;-75
2023/10/20 02:38:53;;;;;;;17.60;12.60;;;;;;;13.53;100.00;98243.16;5022953;28;20053;-75
2023/10/20 02:41:21;;;;;;;14.95;11.32;;;;;;;13.54;100.00;98233.38;5011647;28;20040;-75
2023/10/20 02:43:48;;;;;;;19.05;12.45;;;;;;;13.53;100.00;98229.09;5007953;28;20095;-76
2023/10/20 02:46:16;;;;;;;14.55;12.02;;;;;;;13.52;100.00;98215.00;5003549;28;20053;-75
2023/10/20 02:48:43;;;;;;;16.60;12.15;;;;;;;13.49;100.00;98207.31;4997515;28;20060;-74
2023/10/20 02:51:13;;;;;;;16.15;13.05;;;;;;;13.49;100.00;98200.22;5012589;28;20069;-75
2023/10/20 02:53:41;;;;;;;14.38;12.13;;;;;;;13.50;100.00;98201.03;5013928;28;20045;-74
2023/10/20 02:56:20;;;;;;;17.45;12.90;;;;;;;13.51;100.00;98198.28;5008492;28;20120;-74
2023/10/20 02:58:47;;;;;;;18.23;12.70;;;;;;;13.50;100.00;98201.03;5009692;28;20045;-75
2023/10/20 03:01:17;;;;;;;16.40;12.88;;;;;;;13.49;100.00;98192.28;5019198;28;20045;-74
2023/10/20 03:03:45;;;;;;;20.73;14.07;;;;;;;13.52;100.00;98188.53;5034266;28;20041;-74
2023/10/20 03:06:13;;;;;;;19.45;13.20;;;;;;;13.53;100.00;98176.16;5026807;28;20103;-76
2023/10/20 03:08:40;;;;;;;17.85;13.02;;;;;;;13.52;100.00;98162.06;5043258;28;20049;-76
2023/10/20 03:11:09;;;;;;;17.65;13.95;;;;;;;13.51;100.00;98161.25;5011078;28;20124;-76
2023/10/20 03:13:37;;;;;;;18.42;14.10;;;;;;;13.49;100.00;98155.22;5015017;28;20069;-77
2023/10/20 03:16:05;;;;;;;19.15;14.15;;;;;;;13.54;100.00;98148.69;5027163;28;20049;-77
2023/10/20 03:18:33;;;;;;;17.98;13.50;;;;;;;13.54;100.00;98143.41;5045067;28;20041;-77
2023/10/20 03:21:01;;;;;;;19.67;14.63;;;;;;;13.51;100.00;98128.63;5008783;28;20046;-77
2023/10/20 03:23:30;;;;;;;19.02;14.77;;;;;;;13.51;100.00;98128.63;5014434;28;20136;-76
2023/10/20 03:25:57;;;;;;;18.85;14.48;;;;;;;13.54;100.00;98122.22;5008924;28;20046;-77
2023/10/20 03:28:26;;;;;;;20.58;15.88;;;;;;;13.54;100.00;98119.56;5007778;28;20076;-76
2023/10/20 03:30:54;;;;;;;18.65;14.55;;;;;;;13.54;100.00;98135.47;5042308;28;20100;-76
2023/10/20 03:33:22;;;;;;;19.48;14.93;;;;;;;13.55;100.00;98127.41;5021290;28;20040;-75
2023/10/20 03:36:00;;;;;;;17.95;14.82;;;;;;;13.56;100.00;98133.53;5022395;28;20046;-75
2023/10/20 03:38:28;;;;;;;20.00;15.85;;;;;;;13.56;100.00;98128.22;5007805;28;20104;-76
2023/10/20 03:41:11;;;;;;;20.13;15.70;;;;;;;13.57;100.00;98127.25;5023154;28;20141;-75
2023/10/20 03:43:38;;;;;;;19.67;15.63;;;;;;;13.56;100.00;98125.59;5028520;28;20128;-76
2023/10/20 03:46:05;;;;;;;18.95;15.45;;;;;;;13.58;100.00;98116.53;5031292;28;20099;-74
2023/10/20 03:48:35;;;;;;;18.08;15.68;;;;;;;13.56;100.00;98109.69;5026551;28;20792;-76
2023/10/20 03:51:07;;;;;;;18.05;15.40;;;;;;;13.62;100.00;98104.72;5010268;28;20497;-75
2023/10/20 03:53:47;;;;;;;18.65;15.48;;;;;;;13.61;100.00;98094.28;5021644;28;20505;-76
2023/10/20 03:56:18;;;;;;;22.23;15.52;;;;;;;13.58;100.00;98097.19;5025999;28;20069;-76
2023/10/20 03:58:46;;;;;;;21.15;16.67;;;;;;;13.56;100.00;98105.25;5006735;28;20073;-77
2023/10/20 04:01:14;;;;;;;21.02;17.02;;;;;;;13.57;100.00;98100.78;5048928;28;20049;-77
2023/10/20 04:03:44;;;;;;;19.05;16.20;;;;;;;13.58;100.00;98081.31;5028017;28;20045;-76
2023/10/20 04:06:12;;;;;;;20.67;17.38;;;;;;;13.56;100.00;98070.84;5023774;28;20129;-77
2023/10/20 04:08:41;;;;;;;24.13;17.90;;;;;;;13.57;100.00;98067.25;5028051;28;20054;-78
2023/10/20 04:11:08;;;;;;;18.95;16.75;;;;;;;13.56;100.00;98072.66;5036241;28;20462;-77
2023/10/20 04:13:35;;;;;;;21.13;17.25;;;;;;;13.55;100.00;98078.91;5010251;28;20046;-75
2023/10/20 04:16:13;;;;;;;21.95;16.88;;;;;;;13.56;100.00;98078.78;5034522;28;20165;-75
2023/10/20 04:18:42;;;;;;;20.85;17.25;;;;;;;13.57;100.00;98079.63;5030099;28;20046;-75
2023/10/20 04:21:11;;;;;;;20.38;17.08;;;;;;;13.60;100.00;98076.72;5027459;28;20124;-75
2023/10/20 04:23:40;;;;;;;20.40;17.30;;;;;;;13.60;100.00;98066.13;5041014;28;20128;-77
2023/10/20 04:26:21;;;;;;;19.83;16.67;;;;;;;13.64;100.00;98049.84;5026836;28;20128;-76
2023/10/20 05:01:40;;;;;;;20.75;17.25;;;;;;;13.72;100.00;97959.16;5020068;28;20113;-69
2023/10/20 05:04:15;;;;;;;21.05;17.98;;;;;;;13.72;100.00;97958.31;5014537;28;20043;-70
2023/10/20 05:06:43;;;;;;;19.60;17.50;;;;;;;13.75;100.00;97935.03;5018225;28;20044;-70
2023/10/20 05:09:14;;;;;;;18.80;16.67;;;;;;;13.77;100.00;97935.75;5024840;28;20060;-70
2023/10/20 05:11:41;;;;;;;19.40;17.40;;;;;;;13.76;100.00;97935.91;5023593;28;20041;-71
2023/10/20 05:14:09;;;;;;;19.70;17.42;;;;;;;13.74;100.00;97936.00;5022583;28;20050;-70
2023/10/20 05:16:36;;;;;;;22.77;18.58;;;;;;;13.75;100.00;97927.09;5016581;28;20041;-70
2023/10/20 05:19:04;;;;;;;19.33;17.20;;;;;;;13.76;100.00;97925.31;5024442;28;20052;-72
2023/10/20 05:21:33;;;;;;;18.27;16.38;;;;;;;13.76;100.00;97918.19;5024951;28;20073;-68
2023/10/20 05:24:05;;;;;;;18.20;16.40;;;;;;;13.78;100.00;97915.44;5025740;28;20099;-71
2023/10/20 05:26:32;;;;;;;17.90;16.02;;;;;;;13.79;100.00;97915.28;5026215;28;20063;-70
2023/10/20 05:29:00;;;;;;;20.45;15.73;;;;;;;13.86;100.00;97928.81;5036145;28;20041;-71
2023/10/20 05:31:29;;;;;;;21.58;18.02;;;;;;;13.86;100.00;97914.72;5021448;28;20572;-70
2023/10/20 05:33:57;;;;;;;17.65;15.65;;;;;;;13.84;100.00;97898.16;5016312;28;20604;-70
2023/10/20 05:36:25;;;;;;;18.63;16.50;;;;;;;13.83;100.00;97905.25;5018323;28;20771;-70
2023/10/20 05:38:52;;;;;;;18.50;16.50;;;;;;;13.81;100.00;97900.09;5013718;28;20129;-70
2023/10/20 05:41:19;;;;;;;18.88;16.77;;;;;;;13.80;100.00;97894.91;5007810;28;20049;-70
2023/10/20 05:43:46;;;;;;;19.02;16.67;;;;;;;13.79;100.00;97899.38;5019158;28;20073;-70
2023/10/20 05:46:17;;;;;;;20.55;18.38;;;;;;;13.76;100.00;97906.78;5018508;28;20052;-70
2023/10/20 05:48:46;;;;;;;20.23;17.60;;;;;;;13.76;100.00;97922.66;5019815;28;20276;-70
2023/10/20 05:51:13;;;;;;;17.77;15.95;;;;;;;13.74;100.00;97925.44;5021751;28;20061;-70
2023/10/20 05:53:40;;;;;;;21.48;17.33;;;;;;;13.74;100.00;97938.66;5021774;28;20033;-70
2023/10/20 05:56:08;;;;;;;23.52;17.88;;;;;;;13.74;100.00;97929.91;5017152;28;20038;-70
2023/10/20 05:58:37;;;;;;;23.60;17.98;;;;;;;13.73;100.00;97923.78;5021014;28;20670;-69
2023/10/20 06:01:07;;;;;;;20.52;18.40;;;;;;;13.70;100.00;97932.00;5038224;28;20045;-70
2023/10/20 06:03:34;;;;;;;21.95;19.25;;;;;;;13.70;100.00;97915.25;5022381;28;20041;-70
2023/10/20 06:06:03;;;;;;;20.98;18.52;;;;;;;13.69;100.00;97910.94;5012324;28;20136;-71
2023/10/20 06:08:30;;;;;;;21.75;19.42;;;;;;;13.64;100.00;97901.59;5005822;28;20073;-69
2023/10/20 06:11:05;;;;;;;24.10;18.77;;;;;;;13.66;100.00;97899.66;5006032;28;20042;-72
2023/10/20 06:13:35;;;;;;;25.10;21.80;;;;;;;13.61;100.00;97899.22;5021101;28;20044;-71
2023/10/20 06:16:08;;;;;;;21.58;18.35;;;;;;;13.57;100.00;97892.56;5018045;28;20152;-74
2023/10/20 06:18:37;;;;;;;23.50;19.65;;;;;;;13.54;100.00;97892.81;5039132;28;20465;-74
2023/10/20 06:21:10;;;;;;;24.30;20.05;;;;;;;13.50;100.00;97891.41;5019720;28;20048;-74
2023/10/20 06:23:37;;;;;;;24.55;20.05;;;;;;;13.46;100.00;97880.28;5038692;28;20143;-74
2023/10/20 06:26:04;;;;;;;24.23;18.73;;;;;;;13.43;100.00;97877.88;5017156;28;20555;-74
2023/10/20 06:28:31;;;;;;;25.38;19.02;;;;;;;13.39;100.00;97889.75;5020307;28;20045;-74
2023/10/20 06:31:01;;;;;;;26.13;18.85;;;;;;;13.36;100.00;97905.84;5018985;28;20144;-75
2023/10/20 06:33:32;;;;;;;25.27;18.60;;;;;;;13.34;100.00;97918.38;5029921;28;20041;-75
2023/10/20 06:36:10;;;;;;;21.58;16.58;;;;;;;13.29;100.00;97913.47;5024039;28;20056;-75
2023/10/20 06:41:13;;;;;;;24.48;18.35;;;;;;;13.22;100.00;97880.63;5029213;28;20057;-75
2023/10/20 06:43:40;;;;;;;22.92;17.83;;;;;;;13.18;100.00;97880.06;5029080;28;20042;-74
2023/10/20 06:46:07;;;;;;;23.50;16.98;;;;;;;13.14;100.00;97872.53;5028820;28;20107;-75
2023/10/20 06:48:34;;;;;;;24.90;16.52;;;;;;;13.11;100.00;97878.06;5044330;28;20045;-75
2023/10/20 06:51:02;;;;;;;24.23;17.35;;;;;;;13.10;100.00;97882.53;5029349;28;20513;-74
2023/10/20 06:53:29;;;;;;;20.75;16.55;;;;;;;13.05;100.00;97890.88;5028190;28;20119;-75
2023/10/20 06:55:58;;;;;;;21.30;16.65;;;;;;;13.02;100.00;97890.31;5028757;28;20173;-75
2023/10/20 06:58:41;;;;;;;23.20;16.92;;;;;;;12.97;100.00;97882.75;5028068;28;20044;-76
2023/10/20 07:01:08;;;;;;;20.65;15.13;;;;;;;12.96;100.00;97867.03;5028784;28;20041;-75
2023/10/20 07:03:35;;;;;;;21.38;15.63;;;;;;;12.99;100.00;97864.97;5028664;28;20045;-74
2023/10/20 07:06:10;;;;;;;23.05;16.90;;;;;;;12.93;100.00;97867.28;5035178;28;20044;-75
2023/10/20 07:08:38;;;;;;;24.80;16.25;;;;;;;12.88;100.00;97865.91;5016293;28;20056;-75
2023/10/20 07:11:05;;;;;;;23.25;15.32;;;;;;;12.85;100.00;97868.81;5016015;28;20076;-75
2023/10/20 07:13:34;;;;;;;21.20;14.82;;;;;;;12.88;100.00;97859.78;5025164;28;20132;-75
2023/10/20 07:16:01;;;;;;;25.00;15.88;;;;;;;12.81;100.00;97859.50;5019770;28;20107;-74
2023/10/20 07:18:28;;;;;;;19.50;14.80;;;;;;;12.80;100.00;97855.19;5026997;28;20050;-75
2023/10/20 07:20:55;;;;;;;20.67;14.25;;;;;;;12.77;100.00;97857.25;5018665;28;20045;-75
2023/10/20 07:23:25;;;;;;;19.50;13.93;;;;;;;12.76;100.00;97866.97;5021583;28;20068;-75
2023/10/20 07:25:53;;;;;;;21.00;14.25;;;;;;;12.71;100.00;97851.50;5023730;28;20530;-75
2023/10/20 07:28:21;;;;;;;20.63;14.60;;;;;;;12.69;100.00;97858.72;5035409;28;20136;-75
2023/10/20 07:30:49;;;;;;;19.23;13.38;;;;;;;12.68;100.00;97857.06;5009572;28;20125;-75
2023/10/20 07:33:17;;;;;;;20.75;13.48;;;;;;;12.62;100.00;97851.47;5022087;28;20046;-75
2023/10/20 07:35:44;;;;;;;21.27;14.35;;;;;;;12.61;100.00;97848.00;5015949;28;20050;-75
2023/10/20 07:38:15;;;;;;;16.42;11.75;;;;;;;12.60;100.00;97848.97;5014067;28;20049;-75
2023/10/20 07:40:42;;;;;;;16.48;12.38;;;;;;;12.55;100.00;97865.22;5059319;28;20050;-74
2023/10/20 07:43:11;;;;;;;15.52;11.80;;;;;;;12.55;100.00;97861.75;5028347;28;20120;-75
2023/10/20 07:45:40;;;;;;;17.33;11.43;;;;;;;12.52;100.00;97851.44;5025135;28;20053;-74
2023/10/20 07:48:09;;;;;;;16.83;11.40;;;;;;;12.47;100.00;97857.13;5012437;28;20108;-75
2023/10/20 07:50:37;;;;;;;13.50;10.32;;;;;;;12.44;100.00;97857.38;5036472;28;20041;-75
2023/10/20 07:53:05;;;;;;;12.20;9.27;;;;;;;12.43;100.00;97859.19;5010870;28;20050;-75
2023/10/20 07:55:32;;;;;;;13.13;9.65;;;;;;;12.38;100.00;97852.63;5019073;28;20053;-75
2023/10/20 07:57:59;;;;;;;13.30;9.20;;;;;;;12.34;100.00;97857.34;5019395;28;20375;-75
2023/10/20 08:00:26;;;;;;;9.90;7.65;;;;;;;12.34;100.00;97861.75;5014302;28;20034;-74
2023/10/20 08:02:53;;;;;;;12.02;8.40;;;;;;;12.30;100.00;97855.91;5017446;28;20038;-76
2023/10/20 08:05:24;;;;;;;11.40;8.50;;;;;;;12.24;100.00;97851.16;5026144;28;20046;-75
2023/10/20 08:07:54;;;;;;;10.52;7.68;;;;;;;12.27;100.00;97842.94;5039382;28;20468;-74
2023/10/20 08:10:24;;;;;;;8.60;6.93;;;;;;;12.24;100.00;97846.69;5007132;28;20119;-74
2023/10/20 08:12:51;;;;;;;8.23;6.75;;;;;;;12.19;100.00;97845.41;5008061;28;20522;-74
2023/10/20 08:15:19;;;;;;;7.68;6.25;;;;;;;12.15;100.00;97836.09;5009057;28;20100;-74
2023/10/20 08:17:48;;;;;;;8.00;6.10;;;;;;;12.14;100.00;97826.50;5008020;28;20173;-74
2023/10/20 08:20:16;;;;;;;7.53;6.20;;;;;;;12.11;100.00;97832.84;5010097;28;20041;-74
2023/10/20 08:22:43;;;;;;;9.90;6.45;;;;;;;12.06;100.00;97827.13;5025388;28;20112;-74
2023/10/20 08:25:11;;;;;;;7.30;5.43;;;;;;;12.05;100.00;97828.09;5025886;28;20132;-75
2023/10/20 08:27:38;;;;;;;7.63;5.90;;;;;;;12.02;100.00;97831.00;5030589;28;20045;-75
2023/10/20 08:30:07;;;;;;;8.45;5.78;;;;;;;11.96;100.00;97830.53;5023804;28;20449;-75
2023/10/20 08:32:34;;;;;;;6.07;5.00;;;;;;;11.92;100.00;97833.56;5021716;28;20584;-75
2023/10/20 08:35:03;;;;;;;7.68;5.25;;;;;;;11.89;100.00;97833.81;5023121;28;20052;-76
2023/10/20 08:37:30;;;;;;;8.52;4.45;;;;;;;11.83;100.00;97818.50;5024217;28;20557;-76
2023/10/20 08:39:58;;;;;;;6.28;4.57;;;;;;;11.79;100.00;97829.28;5023432;28;20099;-75
2023/10/20 08:42:25;;;;;;;8.32;4.72;;;;;;;11.75;100.00;97830.50;5025005;28;20037;-76
2023/10/20 08:44:52;;;;;;;6.10;4.43;;;;;;;11.75;100.00;97827.03;5025076;28;20117;-76
2023/10/20 08:47:20;;;;;;;7.82;4.60;;;;;;;11.73;100.00;97828.97;5023542;28;20056;-76
2023/10/20 08:49:49;;;;;;;5.43;3.85;;;;;;;11.69;100.00;97820.47;5024777;28;20092;-76
2023/10/20 08:52:18;;;;;;;5.40;4.20;;;;;;;11.68;100.00;97839.06;5057046;28;20049;-76
2023/10/20 08:54:48;;;;;;;5.75;4.10;;;;;;;11.63;100.00;97837.63;5056526;28;20037;-77
2023/10/20 08:57:15;;;;;;;4.80;3.83;;;;;;;11.60;100.00;97832.59;5038251;28;20042;-77
2023/10/20 08:59:52;;;;;;;5.72;4.18;;;;;;;11.58;100.00;97842.47;5026017;28;20398;-78
2023/10/20 09:02:19;;;;;;;4.18;3.53;;;;;;;11.52;100.00;97829.78;5025892;28;20052;-77
2023/10/20 09:04:51;;;;;;;5.60;3.97;;;;;;;11.49;100.00;97830.88;5020085;28;20041;-77
2023/10/20 09:07:22;;;;;;;5.20;4.22;;;;;;;11.45;100.00;97832.06;5024046;28;20053;-77
2023/10/20 09:09:49;;;;;;;5.25;3.80;;;;;;;11.45;100.00;97829.44;5026360;28;20049;-76
2023/10/20 09:12:16;;;;;;;3.63;3.28;;;;;;;11.46;100.00;97835.56;5039607;28;20041;-77
2023/10/20 09:14:43;;;;;;;5.75;4.10;;;;;;;11.39;100.00;97824.66;5027308;28;20045;-76
2023/10/20 09:17:24;;;;;;;4.15;3.60;;;;;;;11.41;100.00;97832.44;5054098;28;20041;-77
2023/10/20 09:19:51;;;;;;;3.65;3.20;;;;;;;11.38;100.00;97838.81;5021869;28;20048;-76
2023/10/20 09:22:31;;;;;;;4.30;3.55;;;;;;;11.36;100.00;97838.09;5018934;28;20551;-77
2023/10/20 09:24:58;;;;;;;4.40;3.17;;;;;;;11.34;100.00;97840.03;5023106;28;20608;-77
2023/10/20 09:27:25;;;;;;;8.77;4.28;;;;;;;11.33;100.00;97836.56;5024312;28;20461;-76
2023/10/20 09:29:56;;;;;;;3.15;2.80;;;;;;;11.34;100.00;97837.41;5022624;28;20073;-76
2023/10/20 09:32:23;;;;;;;4.60;3.20;;;;;;;11.33;100.00;97825.19;5016345;28;20469;-76
2023/10/20 09:34:52;;;;;;;2.85;2.55;;;;;;;11.35;100.00;97836.41;5009735;28;20167;-76
2023/10/20 09:37:28;;;;;;;3.60;3.22;;;;;;;11.32;100.00;97829.59;5023104;28;20038;-75
2023/10/20 09:40:08;;;;;;;5.05;3.15;;;;;;;11.33;100.00;97815.47;5024666;28;20099;-75
2023/10/20 09:43:07;;;;;;;2.72;2.50;;;;;;;11.38;100.00;97823.00;5036101;28;20120;-76
2023/10/20 09:46:11;;;;;;;3.28;2.58;;;;;;;11.42;100.00;97816.50;5024757;28;20042;-76
2023/10/20 09:48:40;;;;;;;2.65;2.40;;;;;;;11.38;100.00;97817.72;5021602;28;20061;-76
2023/10/20 09:51:09;;;;;;;3.63;2.60;;;;;;;11.39;100.00;97827.31;5022826;28;20136;-76
2023/10/20 09:53:38;;;;;;;2.30;2.10;;;;;;;11.37;100.00;97826.59;5029981;28;20033;-76
2023/10/20 09:56:09;;;;;;;2.88;2.47;;;;;;;11.34;100.00;97834.78;5018957;28;20049;-76
2023/10/20 09:58:41;;;;;;;4.25;2.30;;;;;;;11.37;100.00;97834.50;5037778;28;20042;-77
2023/10/20 10:01:15;;;;;;;2.10;1.85;;;;;;;11.37;100.00;97821.31;5023678;28;20118;-78
2023/10/20 10:04:00;;;;;;;3.05;2.17;;;;;;;11.34;100.00;97824.22;5014152;28;20054;-77
2023/10/20 10:06:35;;;;;;;;;;;;;;;11.33;100.00;97815.47;5018906;28;20092;-77
2023/10/20 10:09:04;;;;;;;2.95;1.90;;;;;;;11.35;100.00;97817.97;5046242;28;19969;-77
2023/10/20 10:11:44;;;;;;;2.28;2.00;;;;;;;11.37;100.00;97813.41;5022857;28;20132;-76
2023/10/20 10:14:19;;;;;;;2.25;2.05;;;;;;;11.38;100.00;97812.44;5027659;28;20045;-76
2023/10/20 10:16:56;;;;;;;3.17;2.58;;;;;;;11.38;100.00;97804.53;5024376;28;20048;-76
2023/10/20 10:19:27;;;;;;;2.80;2.50;;;;;;;11.39;100.00;97805.38;5032301;28;20049;-76
2023/10/20 10:22:00;;;;;;;3.42;2.95;;;;;;;11.43;100.00;97810.28;5023398;28;20069;-77
2023/10/20 10:24:31;;;;;;;3.13;2.65;;;;;;;11.47;100.00;97808.22;5026565;28;20123;-78
2023/10/20 10:27:04;;;;;;;3.50;2.90;;;;;;;11.51;100.00;97817.53;5024137;28;20052;-77
2023/10/20 10:32:31;;;;;;;7.10;2.85;;;;;;;11.48;100.00;97794.91;5027256;28;20037;-77
2023/10/20 10:35:01;;;;;;;3.25;2.60;;;;;;;11.50;100.00;97798.25;5036436;28;20041;-78
2023/10/20 10:37:32;;;;;;;3.80;2.80;;;;;;;11.53;100.00;97788.41;5021226;28;20124;-77
2023/10/20 10:40:13;;;;;;;3.40;3.03;;;;;;;11.55;100.00;97791.78;5023633;28;20070;-78
2023/10/20 10:42:44;;;;;;;3.95;3.55;;;;;;;11.54;100.00;97783.00;5022502;28;20077;-78
2023/10/20 10:45:27;;;;;;;5.30;3.40;;;;;;;11.55;100.00;97782.03;5024966;28;20049;-76
2023/10/20 10:48:09;;;;;;;4.72;3.75;;;;;;;11.54;100.00;97785.63;5015717;28;20049;-78
2023/10/20 10:50:43;;;;;;;4.05;3.55;;;;;;;11.53;100.00;97783.13;5021318;28;20465;-77
2023/10/20 10:53:12;;;;;;;3.95;3.55;;;;;;;11.54;100.00;97777.72;5005391;28;20053;-77
2023/10/20 10:55:40;;;;;;;5.35;4.40;;;;;;;11.50;100.00;97757.81;5020046;28;20184;-77
2023/10/20 10:58:13;;;;;;;4.10;3.55;;;;;;;11.52;100.00;97763.00;5004895;28;20104;-77
2023/10/20 11:00:45;;;;;;;4.72;3.65;;;;;;;11.53;100.00;97762.84;5021927;28;20127;-77
2023/10/20 11:03:16;;;;;;;5.15;3.97;;;;;;;11.59;100.00;97749.16;5013315;28;20502;-77
2023/10/20 11:05:44;;;;;;;4.10;3.58;;;;;;;11.67;100.00;97747.69;5027976;28;20129;-77
2023/10/20 11:08:11;;;;;;;4.60;3.95;;;;;;;11.69;100.00;97745.75;5035671;28;20114;-77
2023/10/20 11:10:49;;;;;;;4.82;3.85;;;;;;;11.65;100.00;97743.38;5018516;28;20064;-76
2023/10/20 11:13:17;;;;;;;3.45;3.15;;;;;;;11.69;100.00;97738.66;5017572;28;20049;-77
2023/10/20 11:15:49;;;;;;;4.40;3.00;;;;;;;11.68;100.00;97739.63;5010352;28;20121;-76
2023/10/20 11:18:18;;;;;;;3.15;2.83;;;;;;;11.67;100.00;97727.41;5021120;28;20417;-76
2023/10/20 11:20:48;;;;;;;2.90;2.60;;;;;;;11.68;100.00;97712.41;5022291;28;20057;-76
2023/10/20 11:23:19;;;;;;;4.70;3.15;;;;;;;11.71;100.00;97710.34;5035770;28;20064;-75
2023/10/20 11:25:48;;;;;;;3.10;2.80;;;;;;;11.72;100.00;97704.09;5019953;28;20033;-75
2023/10/20 11:28:16;;;;;;;3.25;2.90;;;;;;;11.70;100.00;97699.94;5023036;28;20045;-75
2023/10/20 11:30:45;;;;;;;2.72;2.50;;;;;;;11.74;100.00;97688.13;5031024;28;20045;-76
2023/10/20 11:33:13;;;;;;;4.25;2.90;;;;;;;11.77;100.00;97683.41;5026598;28;20053;-73
2023/10/20 11:35:46;;;;;;;3.90;2.35;;;;;;;11.76;100.00;97694.94;5023308;28;20724;-74
2023/10/20 11:38:15;;;;;;;2.33;2.03;;;;;;;11.78;100.00;97681.63;5022496;28;20068;-74
2023/10/20 11:40:42;;;;;;;2.58;2.38;;;;;;;11.76;100.00;97679.09;5019355;28;20099;-73
2023/10/20 11:43:09;;;;;;;2.60;2.40;;;;;;;11.76;100.00;97680.94;5024318;28;20770;-74
2023/10/20 11:45:36;;;;;;;2.35;2.15;;;;;;;11.77;100.00;97677.31;5024391;28;20030;-77
2023/10/20 11:48:04;;;;;;;4.03;2.35;;;;;;;11.74;100.00;97686.34;5025645;28;20064;-74
2023/10/20 11:50:31;;;;;;;2.15;1.95;;;;;;;11.72;100.00;97682.16;5023922;28;20041;-74
2023/10/20 11:52:58;;;;;;;3.00;2.38;;;;;;;11.77;100.00;97666.78;5020312;28;20052;-73
2023/10/20 11:55:25;;;;;;;2.58;1.80;;;;;;;11.82;100.00;97661.91;5035234;28;20037;-74
2023/10/20 11:57:53;;;;;;;2.30;1.88;;;;;;;11.80;100.00;97669.97;5016055;28;20116;-76
2023/10/20 12:00:21;;;;;;;2.85;2.22;;;;;;;11.76;100.00;97667.72;5026309;28;20131;-76
2023/10/20 12:02:49;;;;;;;2.70;2.28;;;;;;;11.73;100.00;97673.25;5017632;28;20644;-74